sensor_id;sensor_type;location;lat;lon;timestamp;P1;durP1;ratioP1;P2;durP2;ratioP2
50393;SDS011;36308;46.312;25.288;2022-10-22T00:00:11;25.00;;;10.90;;
50393;SDS011;36308;46.312;25.288;2022-10-22T00:02:38;18.50;;;9.52;;
50393;SDS011;36308;46.312;25.288;2022-10-22T00:05:04;16.33;;;8.90;;
50393;SDS011;36308;46.312;25.288;2022-10-22T00:07:30;13.80;;;8.05;;
50393;SDS011;36308;46.312;25.288;2022-10-22T00:09:55;16.67;;;7.95;;
50393;SDS011;36308;46.312;25.288;2022-10-22T00:12:21;15.30;;;7.78;;
50393;SDS011;36308;46.312;25.288;2022-10-22T00:14:46;12.32;;;7.43;;
50393;SDS011;36308;46.312;25.288;2022-10-22T00:17:12;14.82;;;6.60;;
50393;SDS011;36308;46.312;25.288;2022-10-22T00:19:38;12.88;;;7.18;;
50393;SDS011;36308;46.312;25.288;2022-10-22T00:22:04;14.82;;;7.70;;
50393;SDS011;36308;46.312;25.288;2022-10-22T00:24:31;11.45;;;7.05;;
50393;SDS011;36308;46.312;25.288;2022-10-22T00:26:57;13.05;;;6.75;;
50393;SDS011;36308;46.312;25.288;2022-10-22T00:29:23;12.88;;;6.45;;
50393;SDS011;36308;46.312;25.288;2022-10-22T00:31:48;11.32;;;6.60;;
50393;SDS011;36308;46.312;25.288;2022-10-22T00:34:17;12.95;;;6.72;;
50393;SDS011;36308;46.312;25.288;2022-10-22T00:36:45;10.90;;;6.50;;
50393;SDS011;36308;46.312;25.288;2022-10-22T00:39:11;10.10;;;6.13;;
50393;SDS011;36308;46.312;25.288;2022-10-22T00:41:40;13.73;;;5.70;;
50393;SDS011;36308;46.312;25.288;2022-10-22T00:44:06;11.18;;;6.20;;
50393;SDS011;36308;46.312;25.288;2022-10-22T00:46:37;11.52;;;5.75;;
50393;SDS011;36308;46.312;25.288;2022-10-22T00:49:03;11.02;;;5.40;;
50393;SDS011;36308;46.312;25.288;2022-10-22T00:51:29;9.30;;;5.20;;
50393;SDS011;36308;46.312;25.288;2022-10-22T00:54:02;13.18;;;5.45;;
50393;SDS011;36308;46.312;25.288;2022-10-22T00:56:30;11.93;;;5.97;;
50393;SDS011;36308;46.312;25.288;2022-10-22T00:58:57;10.15;;;5.65;;
50393;SDS011;36308;46.312;25.288;2022-10-22T01:01:29;9.80;;;4.90;;
50393;SDS011;36308;46.312;25.288;2022-10-22T01:03:56;9.98;;;5.50;;
50393;SDS011;36308;46.312;25.288;2022-10-22T01:06:30;10.07;;;5.00;;
50393;SDS011;36308;46.312;25.288;2022-10-22T01:22:31;9.43;;;4.80;;
50393;SDS011;36308;46.312;25.288;2022-10-22T01:30:19;6.65;;;4.20;;
50393;SDS011;36308;46.312;25.288;2022-10-22T01:32:47;8.88;;;4.68;;
50393;SDS011;36308;46.312;25.288;2022-10-22T01:35:38;7.18;;;4.38;;
50393;SDS011;36308;46.312;25.288;2022-10-22T01:38:05;10.80;;;5.40;;
50393;SDS011;36308;46.312;25.288;2022-10-22T01:40:34;10.32;;;4.97;;
50393;SDS011;36308;46.312;25.288;2022-10-22T01:43:02;11.38;;;5.70;;
50393;SDS011;36308;46.312;25.288;2022-10-22T01:45:32;10.35;;;5.07;;
50393;SDS011;36308;46.312;25.288;2022-10-22T02:03:25;10.13;;;4.85;;
50393;SDS011;36308;46.312;25.288;2022-10-22T02:06:00;7.05;;;4.10;;
50393;SDS011;36308;46.312;25.288;2022-10-22T02:08:30;8.00;;;4.50;;
50393;SDS011;36308;46.312;25.288;2022-10-22T02:10:57;7.30;;;3.75;;
50393;SDS011;36308;46.312;25.288;2022-10-22T02:13:29;7.20;;;3.92;;
50393;SDS011;36308;46.312;25.288;2022-10-22T02:16:00;8.32;;;4.20;;
50393;SDS011;36308;46.312;25.288;2022-10-22T02:18:29;8.00;;;3.90;;
50393;SDS011;36308;46.312;25.288;2022-10-22T02:20:57;7.85;;;4.05;;
50393;SDS011;36308;46.312;25.288;2022-10-22T02:23:23;6.93;;;3.90;;
50393;SDS011;36308;46.312;25.288;2022-10-22T02:25:51;7.93;;;3.95;;
50393;SDS011;36308;46.312;25.288;2022-10-22T02:28:38;7.95;;;4.30;;
50393;SDS011;36308;46.312;25.288;2022-10-22T02:34:12;7.63;;;4.55;;
50393;SDS011;36308;46.312;25.288;2022-10-22T02:36:57;8.75;;;4.32;;
50393;SDS011;36308;46.312;25.288;2022-10-22T02:39:26;7.75;;;4.47;;
50393;SDS011;36308;46.312;25.288;2022-10-22T02:41:53;9.38;;;4.38;;
50393;SDS011;36308;46.312;25.288;2022-10-22T02:46:49;8.13;;;4.18;;
50393;SDS011;36308;46.312;25.288;2022-10-22T02:49:15;8.60;;;4.30;;
50393;SDS011;36308;46.312;25.288;2022-10-22T02:51:41;11.07;;;4.20;;
50393;SDS011;36308;46.312;25.288;2022-10-22T02:54:06;8.65;;;4.88;;
50393;SDS011;36308;46.312;25.288;2022-10-22T02:56:32;9.15;;;4.63;;
50393;SDS011;36308;46.312;25.288;2022-10-22T02:58:57;8.45;;;4.05;;
50393;SDS011;36308;46.312;25.288;2022-10-22T03:01:23;9.45;;;4.53;;
50393;SDS011;36308;46.312;25.288;2022-10-22T03:03:48;8.13;;;4.07;;
50393;SDS011;36308;46.312;25.288;2022-10-22T03:06:14;8.40;;;4.22;;
50393;SDS011;36308;46.312;25.288;2022-10-22T03:08:39;8.60;;;4.85;;
50393;SDS011;36308;46.312;25.288;2022-10-22T03:11:05;9.40;;;4.65;;
50393;SDS011;36308;46.312;25.288;2022-10-22T03:13:31;9.25;;;4.95;;
50393;SDS011;36308;46.312;25.288;2022-10-22T03:15:57;11.45;;;5.65;;
50393;SDS011;36308;46.312;25.288;2022-10-22T03:18:23;9.63;;;5.43;;
50393;SDS011;36308;46.312;25.288;2022-10-22T03:20:48;10.27;;;4.40;;
50393;SDS011;36308;46.312;25.288;2022-10-22T03:23:14;9.88;;;5.05;;
50393;SDS011;36308;46.312;25.288;2022-10-22T03:25:43;8.38;;;5.32;;
50393;SDS011;36308;46.312;25.288;2022-10-22T03:28:12;9.98;;;5.65;;
50393;SDS011;36308;46.312;25.288;2022-10-22T03:30:41;9.68;;;4.93;;
50393;SDS011;36308;46.312;25.288;2022-10-22T03:33:06;7.97;;;4.60;;
50393;SDS011;36308;46.312;25.288;2022-10-22T03:35:32;10.30;;;4.70;;
50393;SDS011;36308;46.312;25.288;2022-10-22T03:38:06;7.70;;;5.00;;
50393;SDS011;36308;46.312;25.288;2022-10-22T03:40:32;10.05;;;5.40;;
50393;SDS011;36308;46.312;25.288;2022-10-22T03:42:57;9.65;;;5.30;;
50393;SDS011;36308;46.312;25.288;2022-10-22T03:45:23;9.30;;;5.07;;
50393;SDS011;36308;46.312;25.288;2022-10-22T03:47:48;11.15;;;5.10;;
50393;SDS011;36308;46.312;25.288;2022-10-22T03:50:13;19.08;;;8.35;;
50393;SDS011;36308;46.312;25.288;2022-10-22T03:52:39;11.95;;;6.70;;
50393;SDS011;36308;46.312;25.288;2022-10-22T03:55:05;12.25;;;6.65;;
50393;SDS011;36308;46.312;25.288;2022-10-22T03:57:31;9.30;;;5.28;;
50393;SDS011;36308;46.312;25.288;2022-10-22T03:59:56;12.40;;;5.97;;
50393;SDS011;36308;46.312;25.288;2022-10-22T04:02:22;10.80;;;6.28;;
50393;SDS011;36308;46.312;25.288;2022-10-22T04:04:47;11.43;;;6.18;;
50393;SDS011;36308;46.312;25.288;2022-10-22T04:07:13;11.93;;;5.97;;
50393;SDS011;36308;46.312;25.288;2022-10-22T04:09:38;10.32;;;5.35;;
50393;SDS011;36308;46.312;25.288;2022-10-22T04:12:04;9.85;;;5.13;;
50393;SDS011;36308;46.312;25.288;2022-10-22T04:14:31;8.23;;;4.60;;
50393;SDS011;36308;46.312;25.288;2022-10-22T04:16:57;9.93;;;4.55;;
50393;SDS011;36308;46.312;25.288;2022-10-22T04:19:22;8.82;;;4.47;;
50393;SDS011;36308;46.312;25.288;2022-10-22T04:21:48;7.22;;;3.78;;
50393;SDS011;36308;46.312;25.288;2022-10-22T04:24:13;10.02;;;3.88;;
50393;SDS011;36308;46.312;25.288;2022-10-22T04:26:39;7.60;;;3.88;;
50393;SDS011;36308;46.312;25.288;2022-10-22T04:29:05;14.93;;;5.93;;
50393;SDS011;36308;46.312;25.288;2022-10-22T04:31:31;12.13;;;5.95;;
50393;SDS011;36308;46.312;25.288;2022-10-22T04:33:58;10.32;;;5.90;;
50393;SDS011;36308;46.312;25.288;2022-10-22T04:36:24;10.02;;;5.50;;
50393;SDS011;36308;46.312;25.288;2022-10-22T04:38:55;7.85;;;4.70;;
50393;SDS011;36308;46.312;25.288;2022-10-22T04:41:23;11.65;;;4.95;;
50393;SDS011;36308;46.312;25.288;2022-10-22T04:43:54;10.73;;;5.03;;
50393;SDS011;36308;46.312;25.288;2022-10-22T04:46:20;9.98;;;5.57;;
50393;SDS011;36308;46.312;25.288;2022-10-22T04:48:46;13.60;;;5.63;;
50393;SDS011;36308;46.312;25.288;2022-10-22T04:51:13;13.00;;;7.82;;
50393;SDS011;36308;46.312;25.288;2022-10-22T04:53:40;12.07;;;7.38;;
50393;SDS011;36308;46.312;25.288;2022-10-22T04:56:17;12.25;;;8.35;;
50393;SDS011;36308;46.312;25.288;2022-10-22T04:58:51;16.50;;;10.25;;
50393;SDS011;36308;46.312;25.288;2022-10-22T05:01:19;34.58;;;19.40;;
50393;SDS011;36308;46.312;25.288;2022-10-22T05:03:47;35.38;;;18.55;;
50393;SDS011;36308;46.312;25.288;2022-10-22T05:06:14;52.85;;;24.20;;
50393;SDS011;36308;46.312;25.288;2022-10-22T05:08:40;62.67;;;32.10;;
50393;SDS011;36308;46.312;25.288;2022-10-22T05:14:02;29.77;;;17.38;;
50393;SDS011;36308;46.312;25.288;2022-10-22T05:16:30;51.00;;;28.73;;
50393;SDS011;36308;46.312;25.288;2022-10-22T05:18:57;40.90;;;23.52;;
50393;SDS011;36308;46.312;25.288;2022-10-22T05:21:23;38.17;;;22.83;;
50393;SDS011;36308;46.312;25.288;2022-10-22T05:23:50;38.78;;;22.77;;
50393;SDS011;36308;46.312;25.288;2022-10-22T05:26:17;33.25;;;20.25;;
50393;SDS011;36308;46.312;25.288;2022-10-22T05:28:43;33.50;;;18.23;;
50393;SDS011;36308;46.312;25.288;2022-10-22T05:31:10;34.35;;;18.38;;
50393;SDS011;36308;46.312;25.288;2022-10-22T05:33:37;35.05;;;18.52;;
50393;SDS011;36308;46.312;25.288;2022-10-22T05:36:04;36.95;;;17.60;;
50393;SDS011;36308;46.312;25.288;2022-10-22T05:38:31;33.00;;;17.90;;
50393;SDS011;36308;46.312;25.288;2022-10-22T05:41:02;26.25;;;15.45;;
50393;SDS011;36308;46.312;25.288;2022-10-22T05:43:29;32.03;;;17.45;;
50393;SDS011;36308;46.312;25.288;2022-10-22T05:45:55;21.55;;;14.45;;
50393;SDS011;36308;46.312;25.288;2022-10-22T05:48:25;21.15;;;13.95;;
50393;SDS011;36308;46.312;25.288;2022-10-22T05:53:49;70.53;;;29.33;;
50393;SDS011;36308;46.312;25.288;2022-10-22T05:56:17;74.80;;;32.13;;
50393;SDS011;36308;46.312;25.288;2022-10-22T05:58:43;94.18;;;39.42;;
50393;SDS011;36308;46.312;25.288;2022-10-22T06:01:13;117.13;;;48.10;;
50393;SDS011;36308;46.312;25.288;2022-10-22T06:03:40;87.63;;;39.55;;
50393;SDS011;36308;46.312;25.288;2022-10-22T06:06:11;67.43;;;32.60;;
50393;SDS011;36308;46.312;25.288;2022-10-22T06:08:54;49.75;;;27.48;;
50393;SDS011;36308;46.312;25.288;2022-10-22T06:11:23;38.05;;;21.60;;
50393;SDS011;36308;46.312;25.288;2022-10-22T06:13:49;29.10;;;16.48;;
50393;SDS011;36308;46.312;25.288;2022-10-22T06:16:15;21.83;;;12.55;;
50393;SDS011;36308;46.312;25.288;2022-10-22T06:18:41;21.73;;;12.63;;
50393;SDS011;36308;46.312;25.288;2022-10-22T06:21:07;20.45;;;12.05;;
50393;SDS011;36308;46.312;25.288;2022-10-22T06:23:35;16.95;;;10.32;;
50393;SDS011;36308;46.312;25.288;2022-10-22T06:26:02;18.23;;;10.40;;
50393;SDS011;36308;46.312;25.288;2022-10-22T06:28:28;19.42;;;9.93;;
50393;SDS011;36308;46.312;25.288;2022-10-22T06:30:55;23.88;;;11.00;;
50393;SDS011;36308;46.312;25.288;2022-10-22T06:36:15;20.33;;;11.95;;
50393;SDS011;36308;46.312;25.288;2022-10-22T06:38:44;18.52;;;11.57;;
50393;SDS011;36308;46.312;25.288;2022-10-22T06:41:11;23.67;;;12.93;;
50393;SDS011;36308;46.312;25.288;2022-10-22T06:43:38;21.50;;;12.65;;
50393;SDS011;36308;46.312;25.288;2022-10-22T06:46:05;20.38;;;11.88;;
50393;SDS011;36308;46.312;25.288;2022-10-22T06:48:33;18.42;;;11.55;;
50393;SDS011;36308;46.312;25.288;2022-10-22T06:51:00;23.48;;;12.70;;
50393;SDS011;36308;46.312;25.288;2022-10-22T06:53:27;20.20;;;11.35;;
50393;SDS011;36308;46.312;25.288;2022-10-22T06:55:53;23.35;;;12.23;;
50393;SDS011;36308;46.312;25.288;2022-10-22T06:58:18;21.08;;;11.63;;
50393;SDS011;36308;46.312;25.288;2022-10-22T07:00:44;19.25;;;12.20;;
50393;SDS011;36308;46.312;25.288;2022-10-22T07:03:12;19.92;;;11.98;;
50393;SDS011;36308;46.312;25.288;2022-10-22T07:05:38;21.00;;;12.82;;
50393;SDS011;36308;46.312;25.288;2022-10-22T07:08:04;22.88;;;14.35;;
50393;SDS011;36308;46.312;25.288;2022-10-22T07:10:30;26.67;;;15.50;;
50393;SDS011;36308;46.312;25.288;2022-10-22T07:12:56;28.15;;;16.60;;
50393;SDS011;36308;46.312;25.288;2022-10-22T07:15:22;24.02;;;15.00;;
50393;SDS011;36308;46.312;25.288;2022-10-22T07:17:48;28.30;;;17.00;;
50393;SDS011;36308;46.312;25.288;2022-10-22T07:20:16;27.30;;;18.20;;
50393;SDS011;36308;46.312;25.288;2022-10-22T07:22:43;30.83;;;18.08;;
50393;SDS011;36308;46.312;25.288;2022-10-22T07:25:09;32.65;;;16.50;;
50393;SDS011;36308;46.312;25.288;2022-10-22T07:27:34;29.63;;;17.50;;
50393;SDS011;36308;46.312;25.288;2022-10-22T07:30:00;26.70;;;17.02;;
50393;SDS011;36308;46.312;25.288;2022-10-22T07:32:25;26.02;;;15.65;;
50393;SDS011;36308;46.312;25.288;2022-10-22T07:38:07;26.67;;;17.33;;
50393;SDS011;36308;46.312;25.288;2022-10-22T07:40:33;27.05;;;17.02;;
50393;SDS011;36308;46.312;25.288;2022-10-22T07:43:00;27.98;;;17.83;;
50393;SDS011;36308;46.312;25.288;2022-10-22T07:45:26;32.05;;;19.10;;
50393;SDS011;36308;46.312;25.288;2022-10-22T07:47:51;31.63;;;20.52;;
50393;SDS011;36308;46.312;25.288;2022-10-22T07:50:17;33.85;;;21.42;;
50393;SDS011;36308;46.312;25.288;2022-10-22T07:52:43;34.05;;;20.88;;
50393;SDS011;36308;46.312;25.288;2022-10-22T07:55:08;34.92;;;20.65;;
50393;SDS011;36308;46.312;25.288;2022-10-22T07:57:34;33.55;;;19.90;;
50393;SDS011;36308;46.312;25.288;2022-10-22T08:00:02;24.83;;;16.55;;
50393;SDS011;36308;46.312;25.288;2022-10-22T08:02:31;24.17;;;15.07;;
50393;SDS011;36308;46.312;25.288;2022-10-22T08:04:56;39.20;;;21.98;;
50393;SDS011;36308;46.312;25.288;2022-10-22T08:07:23;35.53;;;21.70;;
50393;SDS011;36308;46.312;25.288;2022-10-22T08:09:48;38.80;;;22.80;;
50393;SDS011;36308;46.312;25.288;2022-10-22T08:12:14;44.05;;;27.70;;
50393;SDS011;36308;46.312;25.288;2022-10-22T08:14:39;45.58;;;29.10;;
50393;SDS011;36308;46.312;25.288;2022-10-22T08:17:05;43.83;;;26.15;;
50393;SDS011;36308;46.312;25.288;2022-10-22T08:19:30;43.80;;;28.20;;
50393;SDS011;36308;46.312;25.288;2022-10-22T08:21:57;38.47;;;23.98;;
50393;SDS011;36308;46.312;25.288;2022-10-22T08:24:23;30.73;;;18.50;;
50393;SDS011;36308;46.312;25.288;2022-10-22T08:26:50;31.70;;;20.17;;
50393;SDS011;36308;46.312;25.288;2022-10-22T08:29:18;34.88;;;20.98;;
50393;SDS011;36308;46.312;25.288;2022-10-22T08:31:45;38.97;;;23.08;;
50393;SDS011;36308;46.312;25.288;2022-10-22T08:34:11;37.65;;;25.95;;
50393;SDS011;36308;46.312;25.288;2022-10-22T08:36:36;40.80;;;24.15;;
50393;SDS011;36308;46.312;25.288;2022-10-22T08:39:02;41.83;;;25.90;;
50393;SDS011;36308;46.312;25.288;2022-10-22T08:41:27;47.40;;;26.50;;
50393;SDS011;36308;46.312;25.288;2022-10-22T08:49:37;38.38;;;26.40;;
50393;SDS011;36308;46.312;25.288;2022-10-22T08:52:06;37.42;;;22.95;;
50393;SDS011;36308;46.312;25.288;2022-10-22T08:54:42;34.90;;;22.38;;
50393;SDS011;36308;46.312;25.288;2022-10-22T09:00:20;20.67;;;13.93;;
50393;SDS011;36308;46.312;25.288;2022-10-22T09:06:13;20.88;;;12.50;;
50393;SDS011;36308;46.312;25.288;2022-10-22T09:08:42;22.65;;;9.65;;
50393;SDS011;36308;46.312;25.288;2022-10-22T09:13:35;12.70;;;8.52;;
50393;SDS011;36308;46.312;25.288;2022-10-22T09:16:10;13.77;;;8.30;;
50393;SDS011;36308;46.312;25.288;2022-10-22T09:21:28;13.05;;;8.90;;
50393;SDS011;36308;46.312;25.288;2022-10-22T09:26:38;20.85;;;10.13;;
50393;SDS011;36308;46.312;25.288;2022-10-22T09:29:05;15.00;;;8.60;;
50393;SDS011;36308;46.312;25.288;2022-10-22T09:31:31;15.63;;;9.63;;
50393;SDS011;36308;46.312;25.288;2022-10-22T09:33:57;16.65;;;10.05;;
50393;SDS011;36308;46.312;25.288;2022-10-22T09:36:29;22.67;;;12.50;;
50393;SDS011;36308;46.312;25.288;2022-10-22T09:38:56;19.10;;;11.80;;
50393;SDS011;36308;46.312;25.288;2022-10-22T09:41:25;13.73;;;8.75;;
50393;SDS011;36308;46.312;25.288;2022-10-22T09:43:55;18.80;;;8.93;;
50393;SDS011;36308;46.312;25.288;2022-10-22T09:46:23;17.85;;;9.63;;
50393;SDS011;36308;46.312;25.288;2022-10-22T09:48:59;12.18;;;8.00;;
50393;SDS011;36308;46.312;25.288;2022-10-22T09:51:48;15.32;;;8.60;;
50393;SDS011;36308;46.312;25.288;2022-10-22T09:54:40;15.35;;;9.20;;
50393;SDS011;36308;46.312;25.288;2022-10-22T09:57:17;17.80;;;10.63;;
50393;SDS011;36308;46.312;25.288;2022-10-22T09:59:49;15.93;;;9.52;;
50393;SDS011;36308;46.312;25.288;2022-10-22T10:04:47;10.73;;;7.07;;
50393;SDS011;36308;46.312;25.288;2022-10-22T10:07:19;24.00;;;15.40;;
50393;SDS011;36308;46.312;25.288;2022-10-22T10:09:51;18.33;;;11.23;;
50393;SDS011;36308;46.312;25.288;2022-10-22T10:17:46;13.82;;;7.35;;
50393;SDS011;36308;46.312;25.288;2022-10-22T10:23:08;18.08;;;7.32;;
50393;SDS011;36308;46.312;25.288;2022-10-22T10:28:34;13.43;;;6.70;;
50393;SDS011;36308;46.312;25.288;2022-10-22T10:31:51;6.57;;;3.35;;
50393;SDS011;36308;46.312;25.288;2022-10-22T10:42:57;12.23;;;7.03;;
50393;SDS011;36308;46.312;25.288;2022-10-22T10:51:07;7.68;;;3.97;;
50393;SDS011;36308;46.312;25.288;2022-10-22T10:58:53;9.45;;;4.90;;
50393;SDS011;36308;46.312;25.288;2022-10-22T11:07:03;6.35;;;3.95;;
50393;SDS011;36308;46.312;25.288;2022-10-22T11:09:35;10.45;;;4.50;;
50393;SDS011;36308;46.312;25.288;2022-10-22T11:12:16;11.48;;;3.60;;
50393;SDS011;36308;46.312;25.288;2022-10-22T11:14:58;8.73;;;5.75;;
50393;SDS011;36308;46.312;25.288;2022-10-22T11:17:26;8.45;;;5.50;;
50393;SDS011;36308;46.312;25.288;2022-10-22T11:22:58;5.90;;;3.95;;
50393;SDS011;36308;46.312;25.288;2022-10-22T11:25:39;9.20;;;4.80;;
50393;SDS011;36308;46.312;25.288;2022-10-22T11:30:47;7.45;;;4.85;;
50393;SDS011;36308;46.312;25.288;2022-10-22T11:33:21;5.20;;;3.92;;
50393;SDS011;36308;46.312;25.288;2022-10-22T11:35:50;12.07;;;9.18;;
50393;SDS011;36308;46.312;25.288;2022-10-22T11:38:19;7.25;;;3.53;;
50393;SDS011;36308;46.312;25.288;2022-10-22T11:41:06;5.57;;;3.35;;
50393;SDS011;36308;46.312;25.288;2022-10-22T11:44:19;8.32;;;4.05;;
50393;SDS011;36308;46.312;25.288;2022-10-22T11:46:54;11.13;;;4.50;;
50393;SDS011;36308;46.312;25.288;2022-10-22T11:49:41;7.00;;;4.35;;
50393;SDS011;36308;46.312;25.288;2022-10-22T11:54:56;10.40;;;4.40;;
50393;SDS011;36308;46.312;25.288;2022-10-22T11:57:27;5.65;;;3.92;;
50393;SDS011;36308;46.312;25.288;2022-10-22T12:00:00;8.25;;;4.68;;
50393;SDS011;36308;46.312;25.288;2022-10-22T12:02:38;12.75;;;6.07;;
50393;SDS011;36308;46.312;25.288;2022-10-22T12:07:52;8.00;;;4.65;;
50393;SDS011;36308;46.312;25.288;2022-10-22T12:10:28;8.32;;;4.88;;
50393;SDS011;36308;46.312;25.288;2022-10-22T12:13:14;7.47;;;4.00;;
50393;SDS011;36308;46.312;25.288;2022-10-22T12:15:53;9.30;;;4.47;;
50393;SDS011;36308;46.312;25.288;2022-10-22T12:18:26;11.82;;;7.40;;
50393;SDS011;36308;46.312;25.288;2022-10-22T12:21:02;11.93;;;5.72;;
50393;SDS011;36308;46.312;25.288;2022-10-22T12:23:30;9.77;;;5.95;;
50393;SDS011;36308;46.312;25.288;2022-10-22T12:25:58;11.25;;;5.80;;
50393;SDS011;36308;46.312;25.288;2022-10-22T12:28:24;10.68;;;4.60;;
50393;SDS011;36308;46.312;25.288;2022-10-22T12:30:49;8.75;;;4.03;;
50393;SDS011;36308;46.312;25.288;2022-10-22T12:33:17;9.63;;;4.50;;
50393;SDS011;36308;46.312;25.288;2022-10-22T12:35:47;8.38;;;4.90;;
50393;SDS011;36308;46.312;25.288;2022-10-22T12:38:23;8.50;;;4.85;;
50393;SDS011;36308;46.312;25.288;2022-10-22T12:40:50;8.82;;;4.43;;
50393;SDS011;36308;46.312;25.288;2022-10-22T12:43:22;9.95;;;4.50;;
50393;SDS011;36308;46.312;25.288;2022-10-22T12:45:53;6.97;;;4.57;;
50393;SDS011;36308;46.312;25.288;2022-10-22T12:48:29;9.30;;;5.68;;
50393;SDS011;36308;46.312;25.288;2022-10-22T12:50:59;7.50;;;4.53;;
50393;SDS011;36308;46.312;25.288;2022-10-22T12:53:26;10.10;;;4.32;;
50393;SDS011;36308;46.312;25.288;2022-10-22T12:55:58;9.50;;;5.70;;
50393;SDS011;36308;46.312;25.288;2022-10-22T12:58:26;11.90;;;6.55;;
50393;SDS011;36308;46.312;25.288;2022-10-22T13:00:56;9.82;;;5.07;;
50393;SDS011;36308;46.312;25.288;2022-10-22T13:03:33;9.30;;;5.47;;
50393;SDS011;36308;46.312;25.288;2022-10-22T13:06:11;9.43;;;4.15;;
50393;SDS011;36308;46.312;25.288;2022-10-22T13:08:43;12.98;;;4.70;;
50393;SDS011;36308;46.312;25.288;2022-10-22T13:14:32;11.27;;;4.13;;
50393;SDS011;36308;46.312;25.288;2022-10-22T13:19:35;10.23;;;7.00;;
50393;SDS011;36308;46.312;25.288;2022-10-22T13:22:01;7.82;;;6.43;;
50393;SDS011;36308;46.312;25.288;2022-10-22T13:24:27;9.73;;;4.68;;
50393;SDS011;36308;46.312;25.288;2022-10-22T13:26:54;10.57;;;4.93;;
50393;SDS011;36308;46.312;25.288;2022-10-22T13:29:20;11.07;;;6.78;;
50393;SDS011;36308;46.312;25.288;2022-10-22T13:31:48;54.83;;;29.70;;
50393;SDS011;36308;46.312;25.288;2022-10-22T13:34:19;63.88;;;34.03;;
50393;SDS011;36308;46.312;25.288;2022-10-22T13:36:46;57.40;;;33.92;;
50393;SDS011;36308;46.312;25.288;2022-10-22T13:39:20;25.95;;;16.15;;
50393;SDS011;36308;46.312;25.288;2022-10-22T13:41:47;29.20;;;18.98;;
50393;SDS011;36308;46.312;25.288;2022-10-22T13:44:16;33.63;;;23.30;;
50393;SDS011;36308;46.312;25.288;2022-10-22T13:46:42;19.80;;;13.02;;
50393;SDS011;36308;46.312;25.288;2022-10-22T13:49:15;13.30;;;9.60;;
50393;SDS011;36308;46.312;25.288;2022-10-22T13:51:44;17.42;;;12.95;;
50393;SDS011;36308;46.312;25.288;2022-10-22T13:54:12;28.38;;;16.70;;
50393;SDS011;36308;46.312;25.288;2022-10-22T13:56:40;48.40;;;29.35;;
50393;SDS011;36308;46.312;25.288;2022-10-22T13:59:06;39.13;;;23.50;;
50393;SDS011;36308;46.312;25.288;2022-10-22T14:01:32;25.45;;;16.50;;
50393;SDS011;36308;46.312;25.288;2022-10-22T14:03:58;22.55;;;13.63;;
50393;SDS011;36308;46.312;25.288;2022-10-22T14:06:26;19.05;;;11.68;;
50393;SDS011;36308;46.312;25.288;2022-10-22T14:09:05;21.65;;;11.25;;
50393;SDS011;36308;46.312;25.288;2022-10-22T14:11:35;42.38;;;16.85;;
50393;SDS011;36308;46.312;25.288;2022-10-22T14:14:01;26.33;;;15.43;;
50393;SDS011;36308;46.312;25.288;2022-10-22T14:16:29;20.17;;;13.02;;
50393;SDS011;36308;46.312;25.288;2022-10-22T14:18:56;19.95;;;11.90;;
50393;SDS011;36308;46.312;25.288;2022-10-22T14:21:22;23.27;;;14.45;;
50393;SDS011;36308;46.312;25.288;2022-10-22T14:23:47;24.92;;;15.82;;
50393;SDS011;36308;46.312;25.288;2022-10-22T14:26:26;34.10;;;21.30;;
50393;SDS011;36308;46.312;25.288;2022-10-22T14:28:55;55.22;;;33.03;;
50393;SDS011;36308;46.312;25.288;2022-10-22T14:34:13;72.68;;;42.03;;
50393;SDS011;36308;46.312;25.288;2022-10-22T14:36:39;59.33;;;38.15;;
50393;SDS011;36308;46.312;25.288;2022-10-22T14:39:07;62.90;;;38.15;;
50393;SDS011;36308;46.312;25.288;2022-10-22T14:41:50;59.63;;;33.00;;
50393;SDS011;36308;46.312;25.288;2022-10-22T14:44:16;56.22;;;35.08;;
50393;SDS011;36308;46.312;25.288;2022-10-22T14:46:50;61.88;;;35.05;;
50393;SDS011;36308;46.312;25.288;2022-10-22T14:49:18;69.38;;;40.38;;
50393;SDS011;36308;46.312;25.288;2022-10-22T14:51:43;87.15;;;54.25;;
50393;SDS011;36308;46.312;25.288;2022-10-22T14:54:09;104.32;;;62.88;;
50393;SDS011;36308;46.312;25.288;2022-10-22T14:56:34;98.95;;;55.42;;
50393;SDS011;36308;46.312;25.288;2022-10-22T14:59:01;102.35;;;59.10;;
50393;SDS011;36308;46.312;25.288;2022-10-22T15:01:26;85.20;;;52.83;;
50393;SDS011;36308;46.312;25.288;2022-10-22T15:03:52;106.35;;;67.10;;
50393;SDS011;36308;46.312;25.288;2022-10-22T15:06:17;109.32;;;64.18;;
50393;SDS011;36308;46.312;25.288;2022-10-22T15:08:43;102.53;;;66.65;;
50393;SDS011;36308;46.312;25.288;2022-10-22T15:11:10;80.15;;;50.03;;
50393;SDS011;36308;46.312;25.288;2022-10-22T15:13:36;71.50;;;42.20;;
50393;SDS011;36308;46.312;25.288;2022-10-22T15:16:06;82.40;;;46.85;;
50393;SDS011;36308;46.312;25.288;2022-10-22T15:18:32;74.15;;;43.45;;
50393;SDS011;36308;46.312;25.288;2022-10-22T15:20:59;89.65;;;50.03;;
50393;SDS011;36308;46.312;25.288;2022-10-22T15:23:27;80.68;;;47.75;;
50393;SDS011;36308;46.312;25.288;2022-10-22T15:25:53;118.50;;;58.60;;
50393;SDS011;36308;46.312;25.288;2022-10-22T15:28:19;117.18;;;57.55;;
50393;SDS011;36308;46.312;25.288;2022-10-22T15:30:50;92.22;;;48.22;;
50393;SDS011;36308;46.312;25.288;2022-10-22T15:33:20;79.63;;;42.15;;
50393;SDS011;36308;46.312;25.288;2022-10-22T15:35:45;65.03;;;36.95;;
50393;SDS011;36308;46.312;25.288;2022-10-22T15:38:11;72.50;;;38.45;;
50393;SDS011;36308;46.312;25.288;2022-10-22T15:40:36;65.68;;;36.65;;
50393;SDS011;36308;46.312;25.288;2022-10-22T15:43:02;58.20;;;34.00;;
50393;SDS011;36308;46.312;25.288;2022-10-22T15:45:27;40.97;;;27.35;;
50393;SDS011;36308;46.312;25.288;2022-10-22T15:47:53;34.65;;;26.58;;
50393;SDS011;36308;46.312;25.288;2022-10-22T15:50:18;31.20;;;22.70;;
50393;SDS011;36308;46.312;25.288;2022-10-22T15:52:43;33.00;;;24.58;;
50393;SDS011;36308;46.312;25.288;2022-10-22T15:55:09;52.53;;;39.38;;
50393;SDS011;36308;46.312;25.288;2022-10-22T15:57:35;59.22;;;41.60;;
50393;SDS011;36308;46.312;25.288;2022-10-22T16:00:02;54.13;;;34.67;;
50393;SDS011;36308;46.312;25.288;2022-10-22T16:02:28;60.90;;;38.85;;
50393;SDS011;36308;46.312;25.288;2022-10-22T16:04:54;62.42;;;37.40;;
50393;SDS011;36308;46.312;25.288;2022-10-22T16:07:19;77.15;;;42.97;;
50393;SDS011;36308;46.312;25.288;2022-10-22T16:09:45;52.55;;;30.83;;
50393;SDS011;36308;46.312;25.288;2022-10-22T16:12:10;43.60;;;31.17;;
50393;SDS011;36308;46.312;25.288;2022-10-22T16:14:36;50.60;;;33.92;;
50393;SDS011;36308;46.312;25.288;2022-10-22T16:17:01;52.95;;;35.22;;
50393;SDS011;36308;46.312;25.288;2022-10-22T16:19:27;63.83;;;41.92;;
50393;SDS011;36308;46.312;25.288;2022-10-22T16:21:53;63.60;;;37.80;;
50393;SDS011;36308;46.312;25.288;2022-10-22T16:24:20;44.65;;;31.60;;
50393;SDS011;36308;46.312;25.288;2022-10-22T16:26:46;49.00;;;31.02;;
50393;SDS011;36308;46.312;25.288;2022-10-22T16:29:12;55.40;;;32.45;;
50393;SDS011;36308;46.312;25.288;2022-10-22T16:31:38;56.97;;;37.13;;
50393;SDS011;36308;46.312;25.288;2022-10-22T16:34:05;51.17;;;34.17;;
50393;SDS011;36308;46.312;25.288;2022-10-22T16:36:31;50.20;;;32.92;;